SUCCESS DAM (SCC)

Elevation: 692' · TULE R basin · Operator: US Army Corps of Engineers

Provisional data, subject to change.
Query executed Friday at 21:52:11   clock

Select a sensor type for a plot of data.
Note: Reservoir Flows are daily averages.

Earlier

Date RES ELE    STORAGE    RES CHG    TOC STO    ABV TOC    OUTFLOW    INFLOW    FNF    PPT INC    PPTINC4    TEMP MN    TEMP MX    WINDLEN    EVP PAN   
 FEET   AF   AF   AF   AF   CFS   CFS   CFS   INCHES   INCHES   DEG F   DEG F   MILES   INCHES  
10/29/2014 575.84 3169 -25 24078 -20909 13 2 2 0.00 0.00 10 28 52 0.12
10/30/2014 575.73 3143 -26 23091 -19948 13 1 1 0.00 0.00 12 30 57 0.13
10/31/2014 575.65 3124 -19 22105 -18981 9 1 1 0.00 0.00 11 25 67 0.11
11/01/2014 575.70 3136 12 21118 -17982 3 10 10 0.00 0.43 10 17 57 0.07
11/02/2014 575.70 3136 0 20131 -16995 1 1 1 0.00 0.22 7 18 37 0.06
11/03/2014 575.69 3134 -2 19144 -16010 1 1 1 0.00 0.00 8 19 43 0.09
11/04/2014 575.68 3131 -3 18157 -15026 2 1 1 0.00 0.00 8 22 38 0.09
11/05/2014 575.67 3129 -2 17171 -14042 2 2 2 0.00 0.00 8 23 43 0.09
11/06/2014 575.66 3127 -2 16184 -13057 2 2 2 0.00 0.00 10 30 45 0.12
11/07/2014 575.67 3129 2 15197 -12068 2 4 4 0.00 0.00 10 25 54 0.10
11/08/2014 575.69 3134 5 14210 -11076 2 5 5 0.00 0.00 11 26 47 0.10
11/09/2014 575.72 3141 7 13224 -10083 2 6 6 0.00 0.00 11 26 45 0.09
11/10/2014 575.74 3145 4 12237 -9092 2 5 5 0.00 0.00 11 26 52 0.10
11/11/2014 575.75 3148 3 11250 -8102 3 5 5 0.00 0.00 10 21 53 0.07
11/12/2014 575.78 3155 7 10500 -7345 2 6 6 0.00 0.00 11 20 46 0.06
11/13/2014 575.81 3162 7 10500 -7338 2 6 6 0.00 0.00 11 21 48 0.07
11/14/2014 575.84 3169 7 10500 -7331 1 6 6 0.00 0.00 11 19 40 0.05
11/15/2014 575.88 3178 9 10500 -7322 1 7 7 0.00 0.00 10 20 49 0.08
11/16/2014 575.92 3187 9 10500 -7313 2 7 7 0.00 0.00 8 20 43 0.07
11/17/2014 575.96 3197 10 10500 -7303 2 8 8 0.00 0.00 6 20 54 0.08
11/18/2014 575.98 3202 5 10500 -7298 2 5 5 0.00 0.00 6 23 52 0.09
11/19/2014 576.01 3209 7 10500 -7291 1 6 6 0.00 0.00 9 22 51 0.08
11/20/2014 576.05 3218 9 10500 -7282 1 7 7 0.00 0.00 8 20 57 0.07
11/21/2014 576.13 3237 -- 10500 -- 2 12 12 0.00 0.00 10 13 46 0.04
11/22/2014 576.22 3258 -- 10500 -- 1 12 12 0.00 0.00 7 18 36 0.06
11/23/2014 576.30 3278 -- 10500 -- 0 11 11 0.00 0.02 9 18 50 0.05
11/24/2014 576.37 3294 16 10500 -7206 2 11 11 0.00 0.00 5 17 45 0.06
11/25/2014 576.42 3306 12 10500 -7194 3 10 -- 0.00 0.00 5 21 47 0.07
11/26/2014 576.48 3321 15 10500 -7179 3 11 -- 0.00 0.00 5 23 51 0.08
11/27/2014 576.55 3338 17 10500 -7162 2 11 -- 0.00 0.00 6 24 53 0.08
11/28/2014 -- -- -- -- -- -- -- -- -- 0.00 -- -- -- --

Later | Latest

Warning! This data is preliminary and subject to revision.

Show SCC Map | Plot SCC Data | 1 Month SCC Data | Real-Time SCC Data | SCC Info